Aeroporto :
LOGIN :

Iscrizione | Disclaimer

   EN    FR    IT 

 










Sommario :    VFR   VFR Marginale   IFR   IFR Intensivo   IFR Molto Intensivo
Visibilità : 
Base nubi : 
>= 8 km
>= 3000ft
5 / 8 km
1000 / 3000 ft
1500m / 5 km
500 / 1000 ft
800 / 1500m
200 / 500 ft
< 800m
< 200 ft
Simboli :   Temporali  Nebbia  Neve Forte  Precipitazioni Forti  Vento > 20 kt
SIGMETs :   Varie  Temporali  Ghiacco  Turbolenza  Onda orograficha  Ceneri Vulcaniche







- Altitudine del aeroporto : 359 ft
- Codice IATA : BVA
- Carte del aeroporto


LFOB - Beauvais

ULTIMO METAR :
  • 180900Z AUTO 08004KT 010V110 CAVOK 21/15 Q1014 NOSIG

METARs OBSOLETI :
  • 180830Z AUTO 06003KT 320V130 CAVOK 21/15 Q1014 NOSIG
  • 180800Z AUTO 05003KT 010V100 CAVOK 20/14 Q1015 NOSIG
  • 180730Z AUTO VRB02KT CAVOK 19/14 Q1015 NOSIG
  • 180700Z AUTO VRB01KT CAVOK 16/13 Q1015 NOSIG
  • 180630Z AUTO VRB02KT CAVOK 15/13 Q1015 NOSIG

TAF TAF LFOB
Valido dal 18 a 06 ore il 19 a 06 ore UTC


180500Z 1806/1906 VRB02KT CAVOK
PROB30
TEMPO 1816/1818 VRB15G25KT 4000 TSRA BKN060CB
PROB30
TEMPO 1821/1905 VRB20G40KT 2000 TSRAGR BKN080CB
ATIS : +33 3 44 11 49 28
Nessun NOTAM noto per questo aeroporto.



MetMap, La meteo Aeronautica in un colpo d'occhio ! - Copyright ORBIFLY Dicembre 2007 - Disclaimer

ORBIFLY MET'MAP TEAM :

Programmazione e sviluppo : Alexandra Zaïnal
Concezione e sviluppo : Baudouin d'Aumeries
Co-Programmazione e sviluppo : Marc-Olivier Méhu
Supporto tecnico e logistico : Manuel Goepfert
Aiuto per la traduzione : Arnaldo La Scala

Contatto : metmap@orbifly.com




FONTI E CREDITI :

   NOAA